»·PEaware :: N496KG KAJO-KVCV

N496KG :: KAJO-KVCV

FLIGHT INFORMATION

Flight Status: Arrived
Operator: Privately registered:
United States
More flights under this callsign
Pilot: Joseph B. (32285)
Aircraft: CIRRUS SR-22 TURBO
(S22T)
More flights by this aircraft type
Origin: KAJO Corona Mun
United States
Destination: KVCV Socal Logistics
United States
More flights between these airports :: More routes between these airports
Route: PDZ V442 APLES
File this flight plan on PilotEdge
Remarks: I-11 Rating
Altitude:
(Current/Filed)
9,000ft
Speed:
(Current/Filed)
175kts
Departed: 24-Nov-20 02:54 PM
Arrived: 24-Nov-20 04:05 PM
Distance/Time
Traveled:
43nm/1:11
Distance/Time
To Go:
Arrived

Flight Plot

Page will automatically refresh every two minutes.


Map Options




Map Legend


Flown Route
Filed Route
Departure Airport
Arrival Airport
Navaid (VOR, NDB)
Fix

Horizontal Profiles

Position Reports

Time Latitude Longitude Heading Altitude Ground
Speed
24-Nov-20 14:37 33.896802 -117.597639 0 536ft 0kts
24-Nov-20 14:37 33.896802 -117.597639 268 536ft 0kts
24-Nov-20 14:39 33.896802 -117.597639 268 536ft 0kts
24-Nov-20 14:39 33.896802 -117.597639 268 536ft 0kts
24-Nov-20 14:41 33.896802 -117.597639 268 536ft 0kts
24-Nov-20 14:41 33.896802 -117.597639 268 536ft 0kts
24-Nov-20 14:42 33.896802 -117.597639 268 536ft 0kts
24-Nov-20 14:43 33.896802 -117.597639 268 536ft 0kts
24-Nov-20 14:44 33.896802 -117.597642 267 536ft 0kts
24-Nov-20 14:45 33.896802 -117.597642 267 536ft 0kts
24-Nov-20 14:46 33.896802 -117.597643 267 536ft 0kts
24-Nov-20 14:47 33.897072 -117.597505 59 536ft 9kts
24-Nov-20 14:48 33.897201 -117.597351 284 536ft 0kts
24-Nov-20 14:49 33.897201 -117.597351 284 536ft 0kts
24-Nov-20 14:50 33.897210 -117.597362 321 536ft 0kts
24-Nov-20 14:51 33.897210 -117.597362 321 536ft 0kts
24-Nov-20 14:52 33.897210 -117.597362 321 536ft 0kts
24-Nov-20 14:53 33.897664 -117.604675 268 620ft 96kts
24-Nov-20 14:54 33.900954 -117.629065 314 1722ft 118kts
24-Nov-20 14:55 33.920552 -117.622797 66 2792ft 136kts
24-Nov-20 14:56 33.917369 -117.593933 95 3827ft 139kts
24-Nov-20 14:57 33.916579 -117.566096 89 4788ft 141kts
24-Nov-20 14:58 33.916625 -117.537537 81 5758ft 142kts
24-Nov-20 14:59 33.935457 -117.521102 2 6032ft 163kts
24-Nov-20 15:00 33.964570 -117.518169 1 6011ft 175kts
24-Nov-20 15:01 33.991741 -117.506248 38 6012ft 182kts
24-Nov-20 15:02 34.014241 -117.475290 78 5985ft 189kts
24-Nov-20 15:03 33.993615 -117.450108 189 5993ft 187kts
24-Nov-20 15:04 33.967289 -117.472476 223 6006ft 183kts
24-Nov-20 15:05 33.944299 -117.497803 225 6005ft 183kts
24-Nov-20 15:06 33.922211 -117.523072 226 6006ft 182kts
24-Nov-20 15:07 33.915265 -117.556131 313 6164ft 168kts
24-Nov-20 15:08 33.940208 -117.552193 33 7136ft 152kts
24-Nov-20 15:09 33.959510 -117.533364 37 8146ft 141kts
24-Nov-20 15:10 33.976460 -117.514713 37 8993ft 145kts
24-Nov-20 15:11 33.997207 -117.492452 37 9006ft 176kts
24-Nov-20 15:12 34.020976 -117.469806 26 8996ft 181kts
24-Nov-20 15:13 34.048574 -117.453158 23 8992ft 182kts
24-Nov-20 15:14 34.076464 -117.436364 23 8990ft 180kts
24-Nov-20 15:15 34.105436 -117.418868 23 8964ft 181kts
24-Nov-20 15:16 34.133275 -117.402023 23 8965ft 181kts
24-Nov-20 15:17 34.160704 -117.385425 23 8950ft 182kts
24-Nov-20 15:18 34.189511 -117.367982 23 8946ft 181kts
24-Nov-20 15:19 34.221591 -117.348544 23 8937ft 182kts
24-Nov-20 15:20 34.253068 -117.329453 23 8939ft 181kts
24-Nov-20 15:21 34.284869 -117.310151 23 8953ft 180kts
24-Nov-20 15:22 34.314120 -117.292382 23 8964ft 180kts
24-Nov-20 15:23 34.342662 -117.275029 23 8972ft 180kts
24-Nov-20 15:24 34.371410 -117.257538 23 8977ft 180kts
24-Nov-20 15:25 34.400487 -117.239833 23 8981ft 180kts
24-Nov-20 15:26 34.429451 -117.222184 23 8983ft 180kts
24-Nov-20 15:27 34.458060 -117.204737 23 8988ft 180kts
24-Nov-20 15:28 34.486902 -117.187135 23 8995ft 180kts
24-Nov-20 15:29 34.524598 -117.164106 23 9007ft 177kts
24-Nov-20 15:30 34.556729 -117.147353 8 8865ft 181kts
24-Nov-20 15:31 34.594512 -117.143129 358 8300ft 189kts
24-Nov-20 15:32 34.630202 -117.146989 348 7758ft 189kts
24-Nov-20 15:33 34.664562 -117.158315 339 7204ft 184kts
24-Nov-20 15:34 34.695949 -117.176196 329 6659ft 182kts
24-Nov-20 15:35 34.723269 -117.199213 320 6604ft 167kts
24-Nov-20 15:36 34.747423 -117.227752 311 6607ft 164kts
24-Nov-20 15:37 34.766296 -117.258655 303 6607ft 164kts
24-Nov-20 15:38 34.781006 -117.292791 294 6534ft 169kts
24-Nov-20 15:39 34.791865 -117.332694 284 5993ft 181kts
24-Nov-20 15:40 34.792881 -117.376272 234 5352ft 175kts
24-Nov-20 15:41 34.766574 -117.378275 171 4589ft 122kts
24-Nov-20 15:42 34.744601 -117.377335 184 4293ft 104kts
24-Nov-20 15:43 34.723801 -117.378740 185 4312ft 99kts
24-Nov-20 15:44 34.703933 -117.380377 185 4323ft 99kts
24-Nov-20 15:45 34.682231 -117.382384 185 4033ft 107kts
24-Nov-20 15:46 34.660402 -117.384260 185 3624ft 106kts
24-Nov-20 15:47 34.639713 -117.386027 185 3253ft 100kts
24-Nov-20 15:48 34.620271 -117.386921 181 4021ft 100kts
24-Nov-20 15:49 34.604593 -117.393865 251 5012ft 95kts
24-Nov-20 15:50 34.603410 -117.416365 274 5833ft 119kts
24-Nov-20 15:51 34.606061 -117.449966 277 6026ft 160kts
24-Nov-20 15:52 34.611826 -117.489301 283 6011ft 170kts
24-Nov-20 15:53 34.619307 -117.528439 284 6009ft 172kts
24-Nov-20 15:54 34.645538 -117.539929 27 6012ft 174kts
24-Nov-20 15:55 34.675720 -117.519201 50 5988ft 179kts
24-Nov-20 15:56 34.663448 -117.483533 143 6012ft 185kts
24-Nov-20 15:57 34.639095 -117.459870 141 5543ft 127kts
24-Nov-20 15:58 34.621361 -117.440365 137 4857ft 118kts
24-Nov-20 15:59 34.606294 -117.423811 140 4388ft 104kts
24-Nov-20 16:00 34.587043 -117.421374 181 3818ft 100kts
24-Nov-20 16:01 34.569350 -117.420448 156 3788ft 80kts
24-Nov-20 16:02 34.570545 -117.402077 42 3756ft 110kts
24-Nov-20 16:03 34.583706 -117.386476 41 2899ft 85kts
24-Nov-20 16:04 34.589914 -117.379034 43 2867ft 34kts
24-Nov-20 16:05 34.589773 -117.377683 141 2868ft 0kts
24-Nov-20 16:06 34.589773 -117.377683 141 2868ft 0kts

Navigation Log

Ident Type
Flight plan parsing failed, navigation log unavailable